sensor_id;sensor_type;location;lat;lon;timestamp;P1;durP1;ratioP1;P2;durP2;ratioP2
9324;SDS011;4701;51.566;6.776;2023-05-07T07:03:38;8.23;;;7.40;;
9324;SDS011;4701;51.566;6.776;2023-05-07T07:06:40;8.97;;;6.80;;
9324;SDS011;4701;51.566;6.776;2023-05-07T07:09:45;8.60;;;7.57;;
9324;SDS011;4701;51.566;6.776;2023-05-07T07:12:50;8.57;;;6.17;;
9324;SDS011;4701;51.566;6.776;2023-05-07T07:15:54;6.43;;;5.60;;
9324;SDS011;4701;51.566;6.776;2023-05-07T07:18:58;8.07;;;5.37;;
9324;SDS011;4701;51.566;6.776;2023-05-07T07:22:00;5.63;;;5.10;;
9324;SDS011;4701;51.566;6.776;2023-05-07T07:25:03;5.93;;;5.43;;
9324;SDS011;4701;51.566;6.776;2023-05-07T07:28:05;5.60;;;5.00;;
9324;SDS011;4701;51.566;6.776;2023-05-07T07:31:08;7.17;;;4.43;;
9324;SDS011;4701;51.566;6.776;2023-05-07T07:34:11;6.90;;;5.60;;
9324;SDS011;4701;51.566;6.776;2023-05-07T07:37:13;5.43;;;4.50;;
9324;SDS011;4701;51.566;6.776;2023-05-07T07:40:16;6.13;;;5.30;;
9324;SDS011;4701;51.566;6.776;2023-05-07T07:43:19;5.40;;;4.37;;
9324;SDS011;4701;51.566;6.776;2023-05-07T07:46:21;5.50;;;5.00;;
9324;SDS011;4701;51.566;6.776;2023-05-07T07:49:25;6.63;;;5.80;;
9324;SDS011;4701;51.566;6.776;2023-05-07T07:52:27;6.97;;;5.47;;
9324;SDS011;4701;51.566;6.776;2023-05-07T07:55:29;7.40;;;6.23;;
9324;SDS011;4701;51.566;6.776;2023-05-07T07:58:32;9.50;;;5.17;;
9324;SDS011;4701;51.566;6.776;2023-05-07T08:01:35;5.97;;;4.43;;
9324;SDS011;4701;51.566;6.776;2023-05-07T08:04:40;6.63;;;5.43;;
9324;SDS011;4701;51.566;6.776;2023-05-07T08:07:44;6.10;;;5.50;;
9324;SDS011;4701;51.566;6.776;2023-05-07T08:10:47;5.10;;;4.27;;
9324;SDS011;4701;51.566;6.776;2023-05-07T08:13:58;4.43;;;4.03;;
9324;SDS011;4701;51.566;6.776;2023-05-07T08:17:00;5.70;;;4.27;;
9324;SDS011;4701;51.566;6.776;2023-05-07T08:20:04;6.83;;;4.10;;
9324;SDS011;4701;51.566;6.776;2023-05-07T08:23:08;5.00;;;3.60;;
9324;SDS011;4701;51.566;6.776;2023-05-07T08:26:12;4.20;;;3.73;;
9324;SDS011;4701;51.566;6.776;2023-05-07T08:29:14;5.03;;;3.53;;
9324;SDS011;4701;51.566;6.776;2023-05-07T08:32:17;4.80;;;3.87;;
9324;SDS011;4701;51.566;6.776;2023-05-07T08:35:20;5.00;;;4.50;;
9324;SDS011;4701;51.566;6.776;2023-05-07T08:38:22;7.73;;;5.03;;
9324;SDS011;4701;51.566;6.776;2023-05-07T08:41:24;9.10;;;6.93;;
9324;SDS011;4701;51.566;6.776;2023-05-07T08:44:26;6.40;;;4.73;;
9324;SDS011;4701;51.566;6.776;2023-05-07T08:47:33;5.63;;;3.70;;
9324;SDS011;4701;51.566;6.776;2023-05-07T08:50:41;5.17;;;2.90;;
9324;SDS011;4701;51.566;6.776;2023-05-07T08:53:45;4.13;;;3.60;;
9324;SDS011;4701;51.566;6.776;2023-05-07T08:56:52;4.80;;;3.37;;
9324;SDS011;4701;51.566;6.776;2023-05-07T08:59:54;3.50;;;3.20;;
9324;SDS011;4701;51.566;6.776;2023-05-07T09:02:56;4.10;;;3.20;;
9324;SDS011;4701;51.566;6.776;2023-05-07T09:06:00;3.20;;;2.90;;
9324;SDS011;4701;51.566;6.776;2023-05-07T09:09:03;3.40;;;3.00;;
9324;SDS011;4701;51.566;6.776;2023-05-07T09:12:07;4.30;;;3.33;;
9324;SDS011;4701;51.566;6.776;2023-05-07T09:15:10;3.50;;;3.20;;
9324;SDS011;4701;51.566;6.776;2023-05-07T09:18:14;3.83;;;3.50;;
9324;SDS011;4701;51.566;6.776;2023-05-07T09:21:18;4.17;;;3.77;;
9324;SDS011;4701;51.566;6.776;2023-05-07T09:24:22;5.10;;;4.00;;
9324;SDS011;4701;51.566;6.776;2023-05-07T09:27:24;6.17;;;4.10;;
9324;SDS011;4701;51.566;6.776;2023-05-07T09:30:28;4.83;;;4.20;;
9324;SDS011;4701;51.566;6.776;2023-05-07T09:33:33;6.70;;;4.27;;
9324;SDS011;4701;51.566;6.776;2023-05-07T09:36:39;5.87;;;4.60;;
9324;SDS011;4701;51.566;6.776;2023-05-07T09:39:42;5.60;;;4.20;;
9324;SDS011;4701;51.566;6.776;2023-05-07T09:42:46;4.10;;;3.70;;
9324;SDS011;4701;51.566;6.776;2023-05-07T09:45:50;8.20;;;4.07;;
9324;SDS011;4701;51.566;6.776;2023-05-07T09:48:55;7.57;;;4.00;;
9324;SDS011;4701;51.566;6.776;2023-05-07T09:52:02;6.80;;;6.10;;
9324;SDS011;4701;51.566;6.776;2023-05-07T09:55:11;8.10;;;7.40;;
9324;SDS011;4701;51.566;6.776;2023-05-07T09:58:17;12.00;;;8.47;;
9324;SDS011;4701;51.566;6.776;2023-05-07T10:01:21;6.40;;;5.73;;
9324;SDS011;4701;51.566;6.776;2023-05-07T10:04:24;7.13;;;5.37;;
9324;SDS011;4701;51.566;6.776;2023-05-07T10:07:28;6.57;;;4.80;;
9324;SDS011;4701;51.566;6.776;2023-05-07T10:10:37;6.13;;;4.80;;
9324;SDS011;4701;51.566;6.776;2023-05-07T10:13:43;6.93;;;5.23;;
9324;SDS011;4701;51.566;6.776;2023-05-07T10:16:49;5.40;;;4.90;;
9324;SDS011;4701;51.566;6.776;2023-05-07T10:19:52;6.20;;;5.03;;
9324;SDS011;4701;51.566;6.776;2023-05-07T10:22:57;7.77;;;6.67;;
9324;SDS011;4701;51.566;6.776;2023-05-07T10:26:08;6.03;;;5.37;;
9324;SDS011;4701;51.566;6.776;2023-05-07T10:29:12;8.37;;;5.87;;
9324;SDS011;4701;51.566;6.776;2023-05-07T10:32:26;5.53;;;4.63;;
9324;SDS011;4701;51.566;6.776;2023-05-07T10:35:38;4.70;;;4.30;;
9324;SDS011;4701;51.566;6.776;2023-05-07T10:38:44;5.57;;;4.10;;
9324;SDS011;4701;51.566;6.776;2023-05-07T10:41:47;6.87;;;3.90;;
9324;SDS011;4701;51.566;6.776;2023-05-07T10:44:50;6.57;;;5.17;;
9324;SDS011;4701;51.566;6.776;2023-05-07T10:48:08;6.27;;;4.53;;
9324;SDS011;4701;51.566;6.776;2023-05-07T10:51:18;4.93;;;4.43;;
9324;SDS011;4701;51.566;6.776;2023-05-07T10:54:24;3.90;;;3.43;;
9324;SDS011;4701;51.566;6.776;2023-05-07T10:57:35;6.23;;;3.80;;
9324;SDS011;4701;51.566;6.776;2023-05-07T11:00:46;4.57;;;3.13;;
9324;SDS011;4701;51.566;6.776;2023-05-07T11:04:13;4.53;;;4.00;;
9324;SDS011;4701;51.566;6.776;2023-05-07T11:07:28;7.07;;;5.23;;
9324;SDS011;4701;51.566;6.776;2023-05-07T11:10:51;3.60;;;3.30;;
9324;SDS011;4701;51.566;6.776;2023-05-07T11:14:00;4.00;;;3.57;;
9324;SDS011;4701;51.566;6.776;2023-05-07T11:17:12;6.30;;;4.60;;
9324;SDS011;4701;51.566;6.776;2023-05-07T11:20:19;3.97;;;3.67;;
9324;SDS011;4701;51.566;6.776;2023-05-07T11:27:05;7.13;;;4.10;;
9324;SDS011;4701;51.566;6.776;2023-05-07T11:30:07;3.67;;;3.37;;
9324;SDS011;4701;51.566;6.776;2023-05-07T11:33:11;3.73;;;3.37;;
9324;SDS011;4701;51.566;6.776;2023-05-07T11:36:14;3.73;;;2.87;;
9324;SDS011;4701;51.566;6.776;2023-05-07T11:39:25;4.50;;;3.30;;
9324;SDS011;4701;51.566;6.776;2023-05-07T11:42:32;4.73;;;3.70;;
9324;SDS011;4701;51.566;6.776;2023-05-07T11:45:35;4.20;;;3.70;;
9324;SDS011;4701;51.566;6.776;2023-05-07T11:48:38;3.80;;;3.50;;
9324;SDS011;4701;51.566;6.776;2023-05-07T11:51:40;3.50;;;3.20;;
9324;SDS011;4701;51.566;6.776;2023-05-07T11:54:48;3.30;;;3.00;;
9324;SDS011;4701;51.566;6.776;2023-05-07T11:57:52;4.03;;;2.77;;
9324;SDS011;4701;51.566;6.776;2023-05-07T12:00:54;5.70;;;2.73;;
9324;SDS011;4701;51.566;6.776;2023-05-07T12:03:55;4.03;;;2.50;;
9324;SDS011;4701;51.566;6.776;2023-05-07T12:06:57;3.33;;;2.80;;
9324;SDS011;4701;51.566;6.776;2023-05-07T12:09:59;4.47;;;2.77;;
9324;SDS011;4701;51.566;6.776;2023-05-07T12:13:14;4.50;;;3.00;;
9324;SDS011;4701;51.566;6.776;2023-05-07T12:16:17;5.63;;;3.80;;
9324;SDS011;4701;51.566;6.776;2023-05-07T12:19:19;3.83;;;3.17;;
9324;SDS011;4701;51.566;6.776;2023-05-07T12:22:22;3.87;;;3.43;;
9324;SDS011;4701;51.566;6.776;2023-05-07T12:25:24;3.37;;;2.77;;
9324;SDS011;4701;51.566;6.776;2023-05-07T12:28:27;3.87;;;3.07;;
9324;SDS011;4701;51.566;6.776;2023-05-07T12:31:30;3.13;;;2.73;;
9324;SDS011;4701;51.566;6.776;2023-05-07T12:34:32;3.53;;;2.93;;
9324;SDS011;4701;51.566;6.776;2023-05-07T12:37:35;3.23;;;2.77;;
9324;SDS011;4701;51.566;6.776;2023-05-07T12:40:38;4.30;;;3.40;;
9324;SDS011;4701;51.566;6.776;2023-05-07T12:43:42;4.77;;;4.17;;
9324;SDS011;4701;51.566;6.776;2023-05-07T12:46:46;7.77;;;4.97;;
9324;SDS011;4701;51.566;6.776;2023-05-07T12:49:48;4.17;;;3.03;;
9324;SDS011;4701;51.566;6.776;2023-05-07T12:52:50;4.87;;;3.30;;
9324;SDS011;4701;51.566;6.776;2023-05-07T12:55:52;3.90;;;3.00;;
9324;SDS011;4701;51.566;6.776;2023-05-07T12:58:58;4.83;;;2.90;;
9324;SDS011;4701;51.566;6.776;2023-05-07T13:02:00;3.70;;;3.40;;
9324;SDS011;4701;51.566;6.776;2023-05-07T13:05:02;3.33;;;2.83;;
9324;SDS011;4701;51.566;6.776;2023-05-07T13:08:04;3.03;;;2.73;;
9324;SDS011;4701;51.566;6.776;2023-05-07T13:11:09;3.00;;;2.70;;
9324;SDS011;4701;51.566;6.776;2023-05-07T13:14:13;3.33;;;2.80;;
9324;SDS011;4701;51.566;6.776;2023-05-07T13:17:15;4.37;;;3.03;;
9324;SDS011;4701;51.566;6.776;2023-05-07T13:20:17;4.60;;;2.87;;
9324;SDS011;4701;51.566;6.776;2023-05-07T13:23:19;5.10;;;3.17;;
9324;SDS011;4701;51.566;6.776;2023-05-07T13:26:21;4.57;;;3.30;;
9324;SDS011;4701;51.566;6.776;2023-05-07T13:29:24;6.30;;;3.90;;
9324;SDS011;4701;51.566;6.776;2023-05-07T13:32:30;3.73;;;3.43;;
9324;SDS011;4701;51.566;6.776;2023-05-07T13:35:35;4.77;;;3.43;;
9324;SDS011;4701;51.566;6.776;2023-05-07T13:38:37;4.17;;;3.37;;
9324;SDS011;4701;51.566;6.776;2023-05-07T13:41:39;4.47;;;3.30;;
9324;SDS011;4701;51.566;6.776;2023-05-07T13:44:42;4.40;;;4.00;;
9324;SDS011;4701;51.566;6.776;2023-05-07T13:47:45;4.83;;;3.73;;
9324;SDS011;4701;51.566;6.776;2023-05-07T13:50:49;8.20;;;7.37;;
9324;SDS011;4701;51.566;6.776;2023-05-07T13:53:51;7.90;;;6.50;;
9324;SDS011;4701;51.566;6.776;2023-05-07T13:56:54;6.63;;;5.80;;
9324;SDS011;4701;51.566;6.776;2023-05-07T13:59:57;7.40;;;5.60;;
9324;SDS011;4701;51.566;6.776;2023-05-07T14:02:59;7.30;;;4.87;;
9324;SDS011;4701;51.566;6.776;2023-05-07T14:06:01;4.97;;;4.57;;
9324;SDS011;4701;51.566;6.776;2023-05-07T14:09:03;5.77;;;4.83;;
9324;SDS011;4701;51.566;6.776;2023-05-07T14:12:05;5.83;;;5.23;;
9324;SDS011;4701;51.566;6.776;2023-05-07T14:15:09;7.33;;;4.73;;
9324;SDS011;4701;51.566;6.776;2023-05-07T14:18:11;5.33;;;4.80;;
9324;SDS011;4701;51.566;6.776;2023-05-07T14:21:13;6.60;;;5.60;;
9324;SDS011;4701;51.566;6.776;2023-05-07T14:24:15;6.27;;;5.47;;
9324;SDS011;4701;51.566;6.776;2023-05-07T14:27:17;6.13;;;4.60;;
9324;SDS011;4701;51.566;6.776;2023-05-07T14:30:20;6.73;;;4.60;;
9324;SDS011;4701;51.566;6.776;2023-05-07T14:33:24;6.00;;;5.50;;
9324;SDS011;4701;51.566;6.776;2023-05-07T14:36:26;6.40;;;5.43;;
9324;SDS011;4701;51.566;6.776;2023-05-07T14:39:33;5.77;;;5.17;;
9324;SDS011;4701;51.566;6.776;2023-05-07T14:42:35;7.23;;;6.17;;
9324;SDS011;4701;51.566;6.776;2023-05-07T14:45:38;8.33;;;7.53;;
9324;SDS011;4701;51.566;6.776;2023-05-07T14:48:40;10.37;;;9.00;;
9324;SDS011;4701;51.566;6.776;2023-05-07T14:51:43;11.63;;;9.73;;
9324;SDS011;4701;51.566;6.776;2023-05-07T14:54:45;9.80;;;8.87;;
9324;SDS011;4701;51.566;6.776;2023-05-07T14:57:47;9.43;;;8.33;;
9324;SDS011;4701;51.566;6.776;2023-05-07T15:00:50;8.87;;;8.00;;
9324;SDS011;4701;51.566;6.776;2023-05-07T15:03:52;9.10;;;8.20;;
9324;SDS011;4701;51.566;6.776;2023-05-07T15:06:54;9.57;;;8.03;;
9324;SDS011;4701;51.566;6.776;2023-05-07T15:09:56;8.10;;;7.30;;
9324;SDS011;4701;51.566;6.776;2023-05-07T15:12:58;10.37;;;9.30;;
9324;SDS011;4701;51.566;6.776;2023-05-07T15:16:01;10.13;;;8.87;;
9324;SDS011;4701;51.566;6.776;2023-05-07T15:19:03;14.20;;;11.33;;
9324;SDS011;4701;51.566;6.776;2023-05-07T15:22:05;12.30;;;11.10;;
9324;SDS011;4701;51.566;6.776;2023-05-07T15:25:07;12.07;;;10.47;;
9324;SDS011;4701;51.566;6.776;2023-05-07T15:28:10;12.27;;;10.63;;
9324;SDS011;4701;51.566;6.776;2023-05-07T15:31:15;10.90;;;9.30;;
9324;SDS011;4701;51.566;6.776;2023-05-07T15:34:17;12.60;;;10.23;;
9324;SDS011;4701;51.566;6.776;2023-05-07T15:37:19;11.80;;;10.60;;
9324;SDS011;4701;51.566;6.776;2023-05-07T15:40:20;10.67;;;9.57;;
9324;SDS011;4701;51.566;6.776;2023-05-07T15:43:22;11.40;;;10.20;;
9324;SDS011;4701;51.566;6.776;2023-05-07T15:46:26;10.60;;;9.50;;
9324;SDS011;4701;51.566;6.776;2023-05-07T15:49:28;28.93;;;25.83;;
9324;SDS011;4701;51.566;6.776;2023-05-07T15:52:29;24.43;;;18.97;;
9324;SDS011;4701;51.566;6.776;2023-05-07T15:55:31;15.73;;;13.73;;
9324;SDS011;4701;51.566;6.776;2023-05-07T15:58:33;12.10;;;10.90;;
9324;SDS011;4701;51.566;6.776;2023-05-07T16:01:37;12.23;;;10.90;;
9324;SDS011;4701;51.566;6.776;2023-05-07T16:04:40;10.00;;;8.73;;
9324;SDS011;4701;51.566;6.776;2023-05-07T16:07:42;11.23;;;8.70;;
9324;SDS011;4701;51.566;6.776;2023-05-07T16:10:43;9.23;;;8.33;;
9324;SDS011;4701;51.566;6.776;2023-05-07T16:13:45;9.00;;;8.10;;
9324;SDS011;4701;51.566;6.776;2023-05-07T16:16:48;24.63;;;22.03;;
9324;SDS011;4701;51.566;6.776;2023-05-07T16:19:50;21.20;;;19.07;;
9324;SDS011;4701;51.566;6.776;2023-05-07T16:22:52;13.00;;;11.73;;
9324;SDS011;4701;51.566;6.776;2023-05-07T16:25:54;10.57;;;9.57;;
9324;SDS011;4701;51.566;6.776;2023-05-07T16:28:56;9.43;;;8.53;;
9324;SDS011;4701;51.566;6.776;2023-05-07T16:32:00;9.33;;;8.43;;
9324;SDS011;4701;51.566;6.776;2023-05-07T16:35:02;9.07;;;8.17;;
9324;SDS011;4701;51.566;6.776;2023-05-07T16:38:04;9.63;;;8.73;;
9324;SDS011;4701;51.566;6.776;2023-05-07T16:41:09;9.57;;;8.67;;
9324;SDS011;4701;51.566;6.776;2023-05-07T16:44:12;10.60;;;9.60;;
9324;SDS011;4701;51.566;6.776;2023-05-07T16:47:15;10.53;;;9.53;;
9324;SDS011;4701;51.566;6.776;2023-05-07T16:50:17;10.73;;;9.63;;
9324;SDS011;4701;51.566;6.776;2023-05-07T16:53:19;10.07;;;9.07;;
9324;SDS011;4701;51.566;6.776;2023-05-07T16:56:21;10.23;;;9.23;;
9324;SDS011;4701;51.566;6.776;2023-05-07T16:59:22;11.07;;;10.07;;
9324;SDS011;4701;51.566;6.776;2023-05-07T17:02:26;10.17;;;9.17;;
9324;SDS011;4701;51.566;6.776;2023-05-07T17:05:28;10.10;;;9.10;;
9324;SDS011;4701;51.566;6.776;2023-05-07T17:08:32;10.63;;;9.63;;
9324;SDS011;4701;51.566;6.776;2023-05-07T17:11:34;10.00;;;9.00;;
9324;SDS011;4701;51.566;6.776;2023-05-07T17:14:40;11.00;;;9.63;;
9324;SDS011;4701;51.566;6.776;2023-05-07T17:17:43;10.97;;;9.87;;
9324;SDS011;4701;51.566;6.776;2023-05-07T17:20:45;12.73;;;11.43;;
9324;SDS011;4701;51.566;6.776;2023-05-07T17:23:47;10.60;;;9.50;;
9324;SDS011;4701;51.566;6.776;2023-05-07T17:26:48;12.77;;;11.57;;
9324;SDS011;4701;51.566;6.776;2023-05-07T17:29:50;10.23;;;9.23;;
9324;SDS011;4701;51.566;6.776;2023-05-07T17:32:53;10.67;;;9.70;;
9324;SDS011;4701;51.566;6.776;2023-05-07T17:35:56;10.53;;;9.43;;
9324;SDS011;4701;51.566;6.776;2023-05-07T17:38:58;11.40;;;10.20;;
9324;SDS011;4701;51.566;6.776;2023-05-07T17:41:59;9.53;;;8.60;;
9324;SDS011;4701;51.566;6.776;2023-05-07T17:45:01;9.73;;;8.60;;
9324;SDS011;4701;51.566;6.776;2023-05-07T17:48:04;8.03;;;7.17;;
9324;SDS011;4701;51.566;6.776;2023-05-07T17:51:06;7.47;;;6.87;;
9324;SDS011;4701;51.566;6.776;2023-05-07T17:54:09;8.30;;;6.43;;
9324;SDS011;4701;51.566;6.776;2023-05-07T17:57:11;6.20;;;5.50;;
9324;SDS011;4701;51.566;6.776;2023-05-07T18:00:13;7.30;;;6.60;;
9324;SDS011;4701;51.566;6.776;2023-05-07T18:03:17;6.90;;;6.10;;
9324;SDS011;4701;51.566;6.776;2023-05-07T18:06:18;6.93;;;6.23;;
9324;SDS011;4701;51.566;6.776;2023-05-07T18:09:22;6.37;;;5.77;;
9324;SDS011;4701;51.566;6.776;2023-05-07T18:12:24;7.10;;;6.40;;
9324;SDS011;4701;51.566;6.776;2023-05-07T18:15:26;7.53;;;5.60;;
9324;SDS011;4701;51.566;6.776;2023-05-07T18:18:30;6.50;;;5.27;;
9324;SDS011;4701;51.566;6.776;2023-05-07T18:21:34;5.40;;;4.90;;
9324;SDS011;4701;51.566;6.776;2023-05-07T18:24:36;6.83;;;6.10;;
9324;SDS011;4701;51.566;6.776;2023-05-07T18:27:37;6.00;;;5.40;;
9324;SDS011;4701;51.566;6.776;2023-05-07T18:30:39;6.67;;;5.93;;
9324;SDS011;4701;51.566;6.776;2023-05-07T18:33:42;7.57;;;6.33;;
9324;SDS011;4701;51.566;6.776;2023-05-07T18:36:44;7.10;;;6.40;;
9324;SDS011;4701;51.566;6.776;2023-05-07T18:39:46;7.10;;;6.40;;
9324;SDS011;4701;51.566;6.776;2023-05-07T18:42:48;8.00;;;7.03;;
9324;SDS011;4701;51.566;6.776;2023-05-07T18:45:50;8.03;;;7.10;;
9324;SDS011;4701;51.566;6.776;2023-05-07T18:48:53;6.90;;;6.30;;
9324;SDS011;4701;51.566;6.776;2023-05-07T18:51:54;7.47;;;6.83;;
9324;SDS011;4701;51.566;6.776;2023-05-07T18:54:57;8.00;;;7.20;;
9324;SDS011;4701;51.566;6.776;2023-05-07T18:57:58;9.17;;;7.60;;
9324;SDS011;4701;51.566;6.776;2023-05-07T19:01:00;8.03;;;7.23;;
9324;SDS011;4701;51.566;6.776;2023-05-07T19:04:08;8.80;;;7.40;;
9324;SDS011;4701;51.566;6.776;2023-05-07T19:07:10;8.70;;;7.77;;
9324;SDS011;4701;51.566;6.776;2023-05-07T19:10:12;8.67;;;7.93;;
9324;SDS011;4701;51.566;6.776;2023-05-07T19:13:15;9.73;;;7.87;;
9324;SDS011;4701;51.566;6.776;2023-05-07T19:16:16;8.20;;;7.50;;
9324;SDS011;4701;51.566;6.776;2023-05-07T19:19:20;10.57;;;8.50;;
9324;SDS011;4701;51.566;6.776;2023-05-07T19:22:22;10.97;;;9.23;;
9324;SDS011;4701;51.566;6.776;2023-05-07T19:25:23;10.57;;;9.50;;
9324;SDS011;4701;51.566;6.776;2023-05-07T19:28:25;10.53;;;9.40;;
9324;SDS011;4701;51.566;6.776;2023-05-07T19:31:27;10.17;;;8.90;;
9324;SDS011;4701;51.566;6.776;2023-05-07T19:34:31;9.80;;;8.77;;
9324;SDS011;4701;51.566;6.776;2023-05-07T19:37:32;9.90;;;8.90;;
9324;SDS011;4701;51.566;6.776;2023-05-07T19:40:34;10.70;;;9.60;;
9324;SDS011;4701;51.566;6.776;2023-05-07T19:43:36;11.23;;;10.23;;
9324;SDS011;4701;51.566;6.776;2023-05-07T19:46:38;11.07;;;9.83;;
9324;SDS011;4701;51.566;6.776;2023-05-07T19:49:45;10.50;;;9.40;;
9324;SDS011;4701;51.566;6.776;2023-05-07T19:52:47;10.43;;;9.37;;
9324;SDS011;4701;51.566;6.776;2023-05-07T19:55:49;10.90;;;9.80;;
9324;SDS011;4701;51.566;6.776;2023-05-07T19:58:51;10.53;;;9.43;;
9324;SDS011;4701;51.566;6.776;2023-05-07T20:01:53;11.20;;;10.10;;
9324;SDS011;4701;51.566;6.776;2023-05-07T20:04:56;11.63;;;10.60;;
9324;SDS011;4701;51.566;6.776;2023-05-07T20:07:58;12.77;;;11.57;;
9324;SDS011;4701;51.566;6.776;2023-05-07T20:11:01;11.83;;;10.70;;
9324;SDS011;4701;51.566;6.776;2023-05-07T20:14:03;11.37;;;10.27;;
9324;SDS011;4701;51.566;6.776;2023-05-07T20:17:05;11.63;;;10.40;;
9324;SDS011;4701;51.566;6.776;2023-05-07T20:20:09;10.27;;;9.33;;
9324;SDS011;4701;51.566;6.776;2023-05-07T20:23:11;10.97;;;9.87;;
9324;SDS011;4701;51.566;6.776;2023-05-07T20:26:26;12.23;;;11.03;;
9324;SDS011;4701;51.566;6.776;2023-05-07T20:29:27;10.47;;;9.43;;
9324;SDS011;4701;51.566;6.776;2023-05-07T20:32:29;10.93;;;9.83;;
9324;SDS011;4701;51.566;6.776;2023-05-07T20:35:32;11.07;;;10.00;;
9324;SDS011;4701;51.566;6.776;2023-05-07T20:38:34;12.93;;;11.10;;
9324;SDS011;4701;51.566;6.776;2023-05-07T20:41:36;10.63;;;9.63;;
9324;SDS011;4701;51.566;6.776;2023-05-07T20:44:38;10.43;;;9.43;;
9324;SDS011;4701;51.566;6.776;2023-05-07T20:47:40;9.43;;;8.57;;
9324;SDS011;4701;51.566;6.776;2023-05-07T20:50:43;10.23;;;9.23;;
9324;SDS011;4701;51.566;6.776;2023-05-07T20:53:45;10.40;;;9.40;;
9324;SDS011;4701;51.566;6.776;2023-05-07T20:56:47;10.57;;;9.50;;
9324;SDS011;4701;51.566;6.776;2023-05-07T20:59:49;11.80;;;10.50;;
